createdAt,value
2017-12-27T00:00:28.701Z,81.4
2017-12-27T00:01:09.114Z,81.21
2017-12-27T00:01:49.724Z,80.93
2017-12-27T00:02:30.057Z,81.02
2017-12-27T00:03:10.653Z,80.83
2017-12-27T00:03:54.809Z,80.64
2017-12-27T00:04:38.213Z,80.93
2017-12-27T00:05:18.628Z,80.45
2017-12-27T00:05:59.817Z,80.83
2017-12-27T00:06:40.440Z,80.35
2017-12-27T00:07:20.727Z,80.64
2017-12-27T00:08:01.082Z,80.93
2017-12-27T00:08:42.506Z,80.74
2017-12-27T00:09:23.226Z,80.93
2017-12-27T00:10:03.643Z,81.02
2017-12-27T00:10:44.199Z,80.93
2017-12-27T00:11:26.784Z,80.83
2017-12-27T00:12:07.625Z,80.74
2017-12-27T00:12:49.296Z,80.74
2017-12-27T00:13:29.715Z,80.83
2017-12-27T00:14:10.199Z,79.97
2017-12-27T00:14:50.597Z,80.16
2017-12-27T00:15:31.063Z,80.07
2017-12-27T00:16:11.743Z,80.45
2017-12-27T00:16:52.900Z,79.97
2017-12-27T00:17:34.427Z,80.26
2017-12-27T00:18:14.838Z,79.88
2017-12-27T00:18:55.212Z,79.88
2017-12-27T00:19:35.867Z,80.45
2017-12-27T00:20:16.266Z,80.07
2017-12-27T00:20:56.833Z,80.16
2017-12-27T00:21:38.033Z,80.07
2017-12-27T00:22:20.796Z,79.6
2017-12-27T00:23:02.263Z,80.16
2017-12-27T00:23:44.306Z,79.97
2017-12-27T00:24:25.025Z,80.07
2017-12-27T00:25:05.545Z,79.79
2017-12-27T00:25:45.932Z,79.79
2017-12-27T00:26:26.406Z,79.6
2017-12-27T00:27:06.981Z,80.07
2017-12-27T00:27:49.446Z,80.26
2017-12-27T00:28:29.960Z,80.26
2017-12-27T00:29:10.349Z,79.79
2017-12-27T00:29:50.879Z,79.88
2017-12-27T00:30:31.582Z,79.79
2017-12-27T00:31:11.907Z,80.07
2017-12-27T00:31:52.427Z,79.97
2017-12-27T00:32:33.190Z,79.97
2017-12-27T00:33:13.863Z,80.07
2017-12-27T00:33:54.243Z,80.26
2017-12-27T00:34:34.662Z,79.22
2017-12-27T00:35:15.090Z,79.31
2017-12-27T00:35:55.621Z,79.31
2017-12-27T00:36:36.012Z,79.31
2017-12-27T00:37:19.077Z,79.97
2017-12-27T00:39:19.987Z,79.97
2017-12-27T00:41:42.448Z,80.26
2017-12-27T00:42:25.144Z,80.16
2017-12-27T00:43:05.436Z,79.6
2017-12-27T00:43:45.829Z,79.97
2017-12-27T00:44:26.832Z,80.07
2017-12-27T00:45:10.061Z,79.79
2017-12-27T00:45:50.713Z,79.88
2017-12-27T00:46:31.224Z,79.88
2017-12-27T00:47:11.631Z,79.88
2017-12-27T00:47:52.826Z,79.97
2017-12-27T00:48:32.572Z,79.69
2017-12-27T00:49:16.781Z,79.97
2017-12-27T00:49:59.931Z,79.79
2017-12-27T00:50:40.864Z,79.88
2017-12-27T00:51:24.249Z,80.45
2017-12-27T00:52:03.930Z,80.07
2017-12-27T00:52:45.535Z,79.31
2017-12-27T00:53:34.395Z,79.41
2017-12-27T00:54:13.946Z,79.31
2017-12-27T00:54:54.280Z,79.41
2017-12-27T00:55:34.939Z,79.22
2017-12-27T00:56:15.738Z,79.97
2017-12-27T00:56:56.197Z,79.31
2017-12-27T00:57:36.952Z,79.31
2017-12-27T00:58:17.353Z,79.88
2017-12-27T00:58:57.698Z,79.31
2017-12-27T00:59:40.248Z,79.12
2017-12-27T01:00:20.614Z,79.88
2017-12-27T01:01:01.030Z,79.22
2017-12-27T01:01:41.403Z,79.31
2017-12-27T01:02:22.363Z,79.41
2017-12-27T01:03:02.946Z,79.6
2017-12-27T01:03:45.244Z,79.41
2017-12-27T01:04:26.007Z,79.12
2017-12-27T01:05:06.211Z,79.41
2017-12-27T01:05:46.547Z,79.6
2017-12-27T01:06:26.937Z,79.5
2017-12-27T01:07:07.772Z,79.41
2017-12-27T01:07:50.154Z,79.31
2017-12-27T01:08:30.546Z,79.5
2017-12-27T01:09:10.927Z,79.22
2017-12-27T01:09:51.561Z,79.31
2017-12-27T01:10:32.261Z,79.31
2017-12-27T01:11:12.404Z,79.03
2017-12-27T01:11:52.820Z,78.83
2017-12-27T01:12:33.927Z,79.5
2017-12-27T01:13:14.250Z,79.41
2017-12-27T01:13:55.391Z,78.93
2017-12-27T01:14:35.969Z,78.83
2017-12-27T01:15:16.647Z,78.74
2017-12-27T01:15:57.138Z,79.03
2017-12-27T01:16:37.772Z,79.03
2017-12-27T01:17:18.646Z,79.03
2017-12-27T01:17:59.029Z,79.03
2017-12-27T01:18:39.371Z,79.22
2017-12-27T01:19:19.786Z,79.03
2017-12-27T01:21:08.673Z,79.22
2017-12-27T01:21:55.545Z,79.03
2017-12-27T01:22:35.721Z,79.6
2017-12-27T01:23:16.138Z,79.31
2017-12-27T01:23:56.525Z,79.5
2017-12-27T01:24:36.978Z,79.03
2017-12-27T01:25:17.510Z,79.27
2017-12-27T01:25:58.013Z,79.5
2017-12-27T01:26:38.422Z,79.94
2017-12-27T01:27:19.254Z,79.94
2017-12-27T01:27:59.844Z,79.65
2017-12-27T01:28:40.240Z,80.13
2017-12-27T01:29:21.091Z,79.97
2017-12-27T01:30:04.932Z,79.97
2017-12-27T01:30:45.463Z,79.94
2017-12-27T01:31:27.209Z,80.32
2017-12-27T01:32:08.187Z,80.41
2017-12-27T01:32:48.995Z,80.88
2017-12-27T01:33:29.926Z,80.6
2017-12-27T01:34:11.388Z,80.69
2017-12-27T01:34:53.084Z,80.6
2017-12-27T01:35:33.217Z,80.88
2017-12-27T01:36:13.673Z,80.13
2017-12-27T01:36:54.089Z,79.74
2017-12-27T01:37:34.485Z,80.6
2017-12-27T01:38:15.115Z,80.79
2017-12-27T01:38:55.437Z,80.88
2017-12-27T01:39:35.961Z,80.69
2017-12-27T01:40:16.284Z,80.88
2017-12-27T01:40:56.715Z,80.69
2017-12-27T01:41:37.134Z,80.98
2017-12-27T01:42:17.567Z,80.69
2017-12-27T01:42:58.445Z,80.6
2017-12-27T01:43:38.883Z,80.69
2017-12-27T01:44:19.265Z,80.88
2017-12-27T01:44:59.678Z,80.32
2017-12-27T01:45:40.131Z,80.79
2017-12-27T01:46:20.524Z,80.13
2017-12-27T01:47:02.773Z,80.32
2017-12-27T01:47:43.268Z,80.32
2017-12-27T01:48:23.667Z,80.32
2017-12-27T01:49:04.029Z,80.22
2017-12-27T01:49:44.484Z,80.88
2017-12-27T01:50:24.891Z,80.88
2017-12-27T01:51:05.268Z,80.41
2017-12-27T01:51:45.809Z,80.13
2017-12-27T01:52:26.174Z,80.41
2017-12-27T01:53:06.595Z,80.22
2017-12-27T01:53:47.060Z,79.84
2017-12-27T01:54:29.827Z,79.94
2017-12-27T01:55:10.716Z,80.03
2017-12-27T01:56:58.701Z,79.94
2017-12-27T01:57:42.508Z,79.84
2017-12-27T02:00:01.227Z,80.03
2017-12-27T02:00:43.426Z,80.51
2017-12-27T02:01:23.701Z,79.94
2017-12-27T02:02:04.357Z,80.22
2017-12-27T02:02:44.786Z,80.41
2017-12-27T02:03:25.262Z,80.69
2017-12-27T02:04:05.675Z,80.51
2017-12-27T02:06:26.727Z,80.6
2017-12-27T02:08:18.132Z,80.6
2017-12-27T02:09:07.097Z,80.88
2017-12-27T02:09:53.411Z,81.26
2017-12-27T02:10:34.065Z,80.69
2017-12-27T02:11:14.482Z,80.51
2017-12-27T02:13:28.963Z,79.94
2017-12-27T02:14:09.800Z,80.32
2017-12-27T02:14:50.834Z,80.51
2017-12-27T02:15:31.282Z,79.94
2017-12-27T02:16:12.223Z,79.74
2017-12-27T02:16:52.607Z,80.03
2017-12-27T02:17:32.990Z,79.84
2017-12-27T02:18:13.603Z,79.94
2017-12-27T02:18:54.159Z,80.03
2017-12-27T02:19:34.646Z,79.65
2017-12-27T02:20:15.655Z,79.74
2017-12-27T02:20:56.032Z,79.74
2017-12-27T02:21:36.784Z,79.27
2017-12-27T02:22:17.173Z,78.8
2017-12-27T02:22:58.871Z,78.99
2017-12-27T02:23:39.286Z,79.17
2017-12-27T02:24:20.087Z,78.99
2017-12-27T02:26:33.584Z,78.8
2017-12-27T02:27:18.157Z,79.08
2017-12-27T02:27:58.614Z,79.17
2017-12-27T02:28:38.959Z,79.17
2017-12-27T02:29:19.552Z,78.8
2017-12-27T02:29:59.908Z,78.36
2017-12-27T02:32:19.477Z,78.64
2017-12-27T02:34:42.281Z,78.74
2017-12-27T02:35:28.306Z,78.36
2017-12-27T02:36:10.192Z,78.17
2017-12-27T02:36:50.320Z,78.17
2017-12-27T02:37:31.288Z,77.79
2017-12-27T02:38:11.371Z,77.79
2017-12-27T02:38:52.251Z,77.51
2017-12-27T02:39:33.476Z,77.6
2017-12-27T02:40:13.933Z,77.12
2017-12-27T02:40:54.463Z,77.22
2017-12-27T02:41:34.840Z,77.12
2017-12-27T02:42:15.444Z,77.12
2017-12-27T02:42:55.969Z,76.84
2017-12-27T02:43:37.410Z,77.22
2017-12-27T02:44:18.958Z,76.93
2017-12-27T02:44:59.672Z,77.41
2017-12-27T02:45:40.024Z,77.22
2017-12-27T02:46:21.205Z,77.12
2017-12-27T02:47:01.648Z,76.84
2017-12-27T02:47:42.052Z,77.6
2017-12-27T02:48:22.809Z,77.41
2017-12-27T02:49:03.155Z,77.6
2017-12-27T02:49:43.691Z,77.7
2017-12-27T02:50:24.112Z,77.7
2017-12-27T02:51:06.569Z,77.79
2017-12-27T02:51:47.109Z,77.79
2017-12-27T02:52:27.419Z,77.98
2017-12-27T02:53:07.875Z,77.6
2017-12-27T02:53:48.554Z,77.51
2017-12-27T02:54:30.551Z,78.08
2017-12-27T02:55:10.687Z,78.08
2017-12-27T02:55:51.122Z,78.55
2017-12-27T02:56:31.570Z,78.55
2017-12-27T02:57:12.422Z,78.36
2017-12-27T02:57:52.801Z,78.36
2017-12-27T02:58:33.741Z,78.36
2017-12-27T02:59:14.312Z,78.08
2017-12-27T02:59:54.828Z,78.08
2017-12-27T03:00:35.283Z,77.7
2017-12-27T03:01:16.537Z,77.6
2017-12-27T03:01:57.112Z,77.79
2017-12-27T03:02:38.179Z,77.31
2017-12-27T03:03:20.468Z,77.12
2017-12-27T03:04:00.907Z,77.22
2017-12-27T03:04:41.342Z,76.75
2017-12-27T03:05:22.482Z,77.12
2017-12-27T03:06:02.564Z,76.93
2017-12-27T03:06:43.012Z,76.75
2017-12-27T03:07:23.370Z,77.03
2017-12-27T03:08:04.801Z,76.65
2017-12-27T03:08:48.034Z,77.03
2017-12-27T03:09:29.288Z,76.84
2017-12-27T03:10:09.675Z,77.12
2017-12-27T03:10:50.483Z,76.93
2017-12-27T03:11:30.930Z,77.03
2017-12-27T03:12:11.320Z,76.65
2017-12-27T03:12:51.748Z,76.93
2017-12-27T03:13:32.548Z,76.84
2017-12-27T03:14:13.029Z,76.27
2017-12-27T03:14:53.485Z,76.93
2017-12-27T03:15:34.096Z,76.75
2017-12-27T03:16:16.528Z,77.03
2017-12-27T03:16:56.902Z,76.75
2017-12-27T03:17:40.102Z,76.93
2017-12-27T03:18:20.528Z,77.22
2017-12-27T03:19:00.903Z,76.75
2017-12-27T03:19:41.692Z,76.75
2017-12-27T03:20:23.294Z,76.84
2017-12-27T03:21:02.402Z,76.18
2017-12-27T03:21:42.990Z,76.46
2017-12-27T03:22:25.058Z,76.27
2017-12-27T03:23:06.838Z,76.18
2017-12-27T03:23:49.344Z,75.99
2017-12-27T03:24:29.729Z,76.08
2017-12-27T03:25:10.151Z,76.37
2017-12-27T03:25:52.183Z,76.37
2017-12-27T03:26:32.628Z,75.99
2017-12-27T03:27:13.061Z,76.37
2017-12-27T03:27:54.209Z,76.18
2017-12-27T03:28:34.643Z,75.89
2017-12-27T03:29:15.994Z,75.6
2017-12-27T03:29:58.051Z,75.79
2017-12-27T03:30:38.519Z,75.79
2017-12-27T03:31:18.871Z,75.99
2017-12-27T03:31:59.442Z,75.7
2017-12-27T03:32:39.900Z,75.89
2017-12-27T03:33:20.267Z,75.79
2017-12-27T03:34:01.133Z,75.79
2017-12-27T03:34:41.868Z,76.08
2017-12-27T03:35:22.255Z,75.79
2017-12-27T03:36:03.065Z,75.89
2017-12-27T03:36:43.353Z,75.6
2017-12-27T03:37:23.858Z,75.6
2017-12-27T03:39:17.149Z,75.23
2017-12-27T03:41:08.356Z,75.89
2017-12-27T03:41:51.048Z,75.79
2017-12-27T03:42:31.858Z,76.18
2017-12-27T03:43:12.171Z,75.7
2017-12-27T03:43:53.036Z,76.08
2017-12-27T03:44:33.389Z,76.08
2017-12-27T03:45:13.873Z,75.89
2017-12-27T03:45:54.294Z,76.08
2017-12-27T03:46:34.692Z,75.23
2017-12-27T03:47:15.284Z,75.13
2017-12-27T03:47:56.003Z,75.42
2017-12-27T03:48:36.363Z,75.32
2017-12-27T03:49:17.097Z,75.51
2017-12-27T03:49:57.635Z,75.13
2017-12-27T03:50:38.184Z,75.42
2017-12-27T03:51:18.726Z,75.04
2017-12-27T03:51:59.212Z,75.04
2017-12-27T03:52:40.195Z,75.04
2017-12-27T03:53:20.509Z,75.04
2017-12-27T03:54:00.964Z,74.94
2017-12-27T03:54:41.374Z,75.04
2017-12-27T03:55:22.909Z,75.32
2017-12-27T03:56:03.338Z,75.04
2017-12-27T03:56:43.757Z,75.13
2017-12-27T03:57:24.264Z,75.04
2017-12-27T03:59:46.242Z,75.04
2017-12-27T04:00:32.998Z,75.32
2017-12-27T04:01:14.544Z,74.85
2017-12-27T04:42:28.880Z,78.89
2017-12-27T04:43:17.951Z,78.99
2017-12-27T04:45:14.178Z,78.7
2017-12-27T04:45:55.088Z,78.8
2017-12-27T04:46:35.612Z,78.99
2017-12-27T04:47:16.031Z,78.8
2017-12-27T04:47:56.478Z,78.8
2017-12-27T04:48:36.882Z,78.99
2017-12-27T04:49:17.324Z,78.89
2017-12-27T04:49:57.797Z,78.89
2017-12-27T04:50:38.355Z,78.89
2017-12-27T04:51:18.965Z,78.32
2017-12-27T04:51:59.260Z,78.32
2017-12-27T04:52:39.727Z,78.32
2017-12-27T04:53:20.278Z,78.32
2017-12-27T04:54:00.669Z,78.51
2017-12-27T04:54:41.513Z,78.42
2017-12-27T04:55:22.026Z,78.32
2017-12-27T04:56:02.554Z,78.13
2017-12-27T04:56:43.354Z,78.32
2017-12-27T04:57:23.985Z,78.42
2017-12-27T04:58:04.267Z,78.23
2017-12-27T04:58:44.781Z,78.42
2017-12-27T04:59:25.522Z,78.8
2017-12-27T05:00:05.991Z,78.61
2017-12-27T05:00:46.743Z,78.32
2017-12-27T05:01:28.355Z,78.42
2017-12-27T05:02:09.319Z,78.42
2017-12-27T05:02:49.481Z,78.51
2017-12-27T05:03:29.853Z,78.27
2017-12-27T05:04:10.613Z,78.36
2017-12-27T05:04:51.958Z,78.23
2017-12-27T05:05:32.548Z,78.42
2017-12-27T05:06:12.984Z,78.42
2017-12-27T05:06:53.974Z,78.27
2017-12-27T05:07:34.238Z,78.27
2017-12-27T05:08:14.541Z,78.51
2017-12-27T05:08:55.250Z,78.64
2017-12-27T05:09:36.049Z,78.74
2017-12-27T05:10:16.546Z,78.83
2017-12-27T05:10:56.825Z,78.08
2017-12-27T05:11:37.452Z,78.23
2017-12-27T05:12:19.012Z,78.32
2017-12-27T05:12:59.449Z,78.45
2017-12-27T05:13:39.936Z,78.23
2017-12-27T05:14:20.459Z,78.51
2017-12-27T05:15:01.085Z,78.8
2017-12-27T05:15:41.947Z,78.89
2017-12-27T05:16:22.487Z,78.99
2017-12-27T05:17:02.976Z,78.8
2017-12-27T05:17:43.502Z,78.99
2017-12-27T05:18:23.823Z,79.08
2017-12-27T05:19:05.081Z,78.89
2017-12-27T05:19:45.968Z,79.17
2017-12-27T05:20:26.320Z,79.03
2017-12-27T05:21:07.122Z,78.99
2017-12-27T05:21:47.706Z,79.03
2017-12-27T05:22:28.013Z,78.89
2017-12-27T05:24:22.851Z,79.36
2017-12-27T05:26:29.178Z,79.36
2017-12-27T05:27:09.514Z,79.46
2017-12-27T05:27:50.164Z,79.36
2017-12-27T05:28:36.101Z,79.65
2017-12-27T05:29:16.545Z,79.74
2017-12-27T05:29:56.904Z,79.94
2017-12-27T05:30:37.300Z,80.13
2017-12-27T05:31:20.751Z,80.22
2017-12-27T05:32:01.177Z,80.13
2017-12-27T05:32:46.040Z,79.94
2017-12-27T05:34:45.101Z,80.32
2017-12-27T05:36:08.847Z,80.22
2017-12-27T05:36:49.670Z,80.32
2017-12-27T05:37:30.216Z,80.32
2017-12-27T05:38:11.973Z,79.94
2017-12-27T05:38:51.263Z,80.69
2017-12-27T05:39:31.660Z,80.69
2017-12-27T05:40:12.215Z,80.32
2017-12-27T05:40:52.875Z,80.41
2017-12-27T05:41:33.582Z,80.13
2017-12-27T05:42:14.108Z,80.88
2017-12-27T05:42:54.568Z,80.88
2017-12-27T05:43:35.244Z,80.88
2017-12-27T05:44:15.568Z,81.36
2017-12-27T05:44:56.048Z,80.98
2017-12-27T05:45:37.706Z,80.69
2017-12-27T05:46:18.429Z,80.69
2017-12-27T05:46:58.623Z,81.26
2017-12-27T05:47:39.066Z,81.17
2017-12-27T05:48:19.805Z,81.07
2017-12-27T05:49:00.187Z,81.07
2017-12-27T05:49:40.595Z,81.26
2017-12-27T05:50:21.516Z,81.26
2017-12-27T05:51:01.732Z,81.65
2017-12-27T05:51:42.393Z,81.74
2017-12-27T05:52:22.922Z,81.74
2017-12-27T05:53:03.781Z,81.45
2017-12-27T05:53:44.216Z,81.93
2017-12-27T05:56:26.907Z,81.65
2017-12-27T05:58:53.504Z,82.4
2017-12-27T05:59:37.687Z,82.31
2017-12-27T06:00:18.075Z,81.93
2017-12-27T06:00:58.770Z,82.03
2017-12-27T06:01:39.337Z,82.21
2017-12-27T06:02:20.708Z,82.4
2017-12-27T06:03:00.953Z,82.21
2017-12-27T06:03:41.952Z,82.59
2017-12-27T06:04:22.442Z,82.78
2017-12-27T06:05:03.043Z,82.69
2017-12-27T06:05:43.683Z,82.69
2017-12-27T06:06:23.924Z,82.88
2017-12-27T06:07:04.608Z,82.69
2017-12-27T06:07:45.356Z,82.88
2017-12-27T06:08:25.772Z,83.36
2017-12-27T06:09:06.162Z,82.88
2017-12-27T06:09:47.110Z,82.88
2017-12-27T06:10:27.823Z,82.88
2017-12-27T06:11:08.332Z,82.88
2017-12-27T06:11:48.769Z,82.97
2017-12-27T06:12:29.532Z,83.07
2017-12-27T06:13:11.072Z,83.16
2017-12-27T06:13:51.710Z,82.88
2017-12-27T06:14:32.547Z,83.73
2017-12-27T06:15:12.586Z,83.64
2017-12-27T06:15:52.953Z,83.36
2017-12-27T06:16:34.232Z,83.45
2017-12-27T06:17:14.563Z,83.07
2017-12-27T06:17:55.033Z,83.64
2017-12-27T06:18:35.593Z,83.26
2017-12-27T06:19:16.381Z,83.16
2017-12-27T06:19:56.824Z,83.54
2017-12-27T06:20:37.586Z,83.36
2017-12-27T06:21:17.990Z,83.73
2017-12-27T06:21:59.159Z,83.83
2017-12-27T06:22:39.529Z,83.73
2017-12-27T06:23:20.207Z,83.64
2017-12-27T06:24:00.626Z,83.64
2017-12-27T06:24:41.322Z,83.45
2017-12-27T06:25:21.611Z,83.73
2017-12-27T06:27:40.205Z,83.73
2017-12-27T06:28:25.609Z,84.11
2017-12-27T06:29:05.988Z,84.01
2017-12-27T06:29:46.641Z,84.59
2017-12-27T06:30:26.990Z,84.4
2017-12-27T06:31:07.358Z,84.3
2017-12-27T06:31:47.743Z,84.3
2017-12-27T06:32:28.385Z,84.68
2017-12-27T06:33:08.857Z,84.3
2017-12-27T06:33:49.565Z,84.3
2017-12-27T06:35:48.820Z,84.68
2017-12-27T06:36:30.702Z,84.3
2017-12-27T06:37:10.916Z,84.59
2017-12-27T06:37:51.422Z,84.49
2017-12-27T06:38:31.926Z,84.68
2017-12-27T06:39:12.224Z,84.3
2017-12-27T06:39:52.761Z,84.4
2017-12-27T06:40:33.652Z,84.59
2017-12-27T06:41:14.821Z,84.49
2017-12-27T06:41:55.126Z,84.68
2017-12-27T06:42:35.639Z,84.4
2017-12-27T06:43:16.256Z,84.4
2017-12-27T06:43:57.154Z,84.68
2017-12-27T06:44:37.952Z,84.4
2017-12-27T06:45:18.253Z,84.49
2017-12-27T06:45:59.012Z,84.4
2017-12-27T06:46:39.615Z,84.49
2017-12-27T06:47:20.082Z,84.4
2017-12-27T06:48:00.367Z,84.87
2017-12-27T06:48:40.898Z,84.78
2017-12-27T06:49:21.227Z,84.97
2017-12-27T06:50:01.812Z,84.4
2017-12-27T06:50:42.071Z,84.3
2017-12-27T06:51:22.688Z,84.4
2017-12-27T06:52:03.136Z,84.78
2017-12-27T06:52:43.478Z,84.68
2017-12-27T06:53:24.384Z,84.87
2017-12-27T06:54:04.728Z,84.78
2017-12-27T06:54:45.164Z,84.59
2017-12-27T06:55:26.602Z,84.68
2017-12-27T06:56:07.139Z,84.87
2017-12-27T06:56:47.850Z,85.53
2017-12-27T06:57:28.393Z,85.44
2017-12-27T06:58:08.756Z,85.44
2017-12-27T06:58:49.599Z,85.44
2017-12-27T06:59:29.991Z,85.35
2017-12-27T07:00:10.495Z,85.25
2017-12-27T07:00:50.872Z,85.35
2017-12-27T07:01:31.422Z,85.35
2017-12-27T07:02:11.783Z,85.44
2017-12-27T07:02:52.808Z,85.35
2017-12-27T07:03:33.565Z,85.16
2017-12-27T07:04:14.059Z,85.16
2017-12-27T07:06:35.094Z,85.35
2017-12-27T07:08:23.096Z,84.97
2017-12-27T07:09:04.022Z,85.25
2017-12-27T07:09:44.928Z,85.35
2017-12-27T07:10:25.579Z,85.53
2017-12-27T07:11:05.990Z,85.53
2017-12-27T07:11:46.391Z,85.72
2017-12-27T07:13:49.809Z,85.16
2017-12-27T07:15:44.079Z,85.44
2017-12-27T07:16:22.099Z,85.35
2017-12-27T07:17:02.490Z,85.16
2017-12-27T07:17:43.834Z,85.06
2017-12-27T07:18:24.409Z,85.35
2017-12-27T07:19:04.808Z,85.25
2017-12-27T07:19:45.216Z,85.06
2017-12-27T07:20:25.715Z,85.63
2017-12-27T07:21:06.509Z,85.35
2017-12-27T07:21:47.132Z,85.82
2017-12-27T07:22:27.985Z,85.25
2017-12-27T07:23:08.655Z,85.35
2017-12-27T07:23:49.028Z,85.44
2017-12-27T07:24:29.588Z,86.01
2017-12-27T07:25:09.997Z,86.11
2017-12-27T07:25:50.572Z,86.01
2017-12-27T07:26:31.225Z,86.2
2017-12-27T07:27:12.312Z,86.01
2017-12-27T07:27:52.248Z,85.82
2017-12-27T07:28:32.746Z,85.91
2017-12-27T07:29:13.256Z,86.01
2017-12-27T07:29:54.050Z,85.82
2017-12-27T07:30:34.548Z,85.91
2017-12-27T07:31:15.281Z,85.82
2017-12-27T07:31:55.714Z,86.01
2017-12-27T07:32:36.118Z,86.01
2017-12-27T07:33:17.544Z,86.01
2017-12-27T07:33:57.907Z,85.91
2017-12-27T07:34:38.402Z,85.63
2017-12-27T07:35:18.835Z,85.91
2017-12-27T07:35:59.179Z,85.91
2017-12-27T07:36:40.009Z,86.11
2017-12-27T07:37:20.207Z,85.72
2017-12-27T07:38:00.639Z,85.82
2017-12-27T07:38:41.156Z,85.82
2017-12-27T07:39:21.646Z,86.01
2017-12-27T07:40:02.125Z,85.82
2017-12-27T07:40:42.546Z,86.01
2017-12-27T07:41:23.924Z,86.11
2017-12-27T07:42:04.387Z,86.01
2017-12-27T07:42:44.736Z,86.11
2017-12-27T07:43:26.194Z,86.11
2017-12-27T07:44:07.111Z,86.01
2017-12-27T07:44:47.611Z,86.11
2017-12-27T07:45:28.026Z,85.72
2017-12-27T07:46:08.485Z,86.11
2017-12-27T07:46:49.008Z,85.82
2017-12-27T07:47:29.551Z,86.3
2017-12-27T07:48:09.791Z,85.91
2017-12-27T07:48:50.219Z,85.82
2017-12-27T07:49:31.171Z,86.01
2017-12-27T07:50:11.897Z,85.82
2017-12-27T07:50:52.218Z,86.01
2017-12-27T07:51:32.676Z,85.82
2017-12-27T07:52:13.075Z,85.82
2017-12-27T07:52:54.073Z,85.82
2017-12-27T07:53:34.012Z,86.01
2017-12-27T07:54:14.810Z,86.2
2017-12-27T07:54:54.955Z,86.01
2017-12-27T07:55:35.368Z,86.01
2017-12-27T07:56:15.929Z,86.01
2017-12-27T07:56:56.356Z,86.11
2017-12-27T07:57:36.703Z,85.16
2017-12-27T07:58:17.160Z,86.01
2017-12-27T07:58:57.673Z,86.01
2017-12-27T07:59:38.223Z,85.25
2017-12-27T08:00:18.569Z,85.53
2017-12-27T08:00:59.076Z,85.44
2017-12-27T08:01:39.443Z,85.44
2017-12-27T08:02:19.891Z,86.01
2017-12-27T08:03:00.387Z,85.06
2017-12-27T08:03:41.567Z,86.01
2017-12-27T08:04:21.906Z,85.91
2017-12-27T08:05:03.113Z,85.82
2017-12-27T08:05:44.110Z,86.11
2017-12-27T08:06:24.753Z,85.53
2017-12-27T08:07:06.160Z,85.82
2017-12-27T08:07:46.580Z,85.25
2017-12-27T08:08:27.220Z,85.25
2017-12-27T08:09:07.742Z,85.25
2017-12-27T08:09:48.293Z,85.44
2017-12-27T08:10:28.790Z,85.35
2017-12-27T08:11:09.189Z,85.35
2017-12-27T08:11:49.766Z,85.35
2017-12-27T08:12:31.124Z,85.25
2017-12-27T08:13:11.911Z,85.72
2017-12-27T08:13:52.297Z,85.91
2017-12-27T08:14:33.621Z,86.01
2017-12-27T08:15:15.795Z,85.82
2017-12-27T08:15:56.051Z,86.39
2017-12-27T08:18:09.637Z,86.87
2017-12-27T08:18:54.411Z,86.87
2017-12-27T08:19:36.946Z,87.34
2017-12-27T08:20:19.759Z,86.87
2017-12-27T08:21:00.095Z,87.34
2017-12-27T08:21:40.814Z,87.53
2017-12-27T08:22:21.195Z,86.87
2017-12-27T08:23:01.783Z,86.58
2017-12-27T08:23:42.683Z,86.87
2017-12-27T08:24:26.609Z,86.68
2017-12-27T08:25:06.988Z,86.96
2017-12-27T08:25:51.435Z,87.24
2017-12-27T08:26:31.889Z,87.24
2017-12-27T08:27:12.436Z,87.34
2017-12-27T08:27:53.391Z,87.62
2017-12-27T08:28:34.161Z,87.34
2017-12-27T08:29:14.612Z,87.15
2017-12-27T08:29:55.376Z,87.62
2017-12-27T08:30:35.827Z,87.82
2017-12-27T08:31:16.219Z,87.53
2017-12-27T08:31:57.436Z,87.82
2017-12-27T08:32:37.844Z,87.34
2017-12-27T08:33:20.626Z,87.24
2017-12-27T08:34:00.134Z,87.24
2017-12-27T08:34:41.243Z,87.53
2017-12-27T08:35:25.285Z,86.96
2017-12-27T08:36:05.508Z,87.05
2017-12-27T08:36:46.434Z,87.34
2017-12-27T08:37:27.880Z,87.15
2017-12-27T08:38:08.883Z,87.91
2017-12-27T08:38:50.556Z,87.53
2017-12-27T08:39:30.978Z,87.72
2017-12-27T08:40:11.867Z,87.82
2017-12-27T08:40:53.164Z,87.53
2017-12-27T08:41:33.803Z,87.62
2017-12-27T08:42:15.576Z,87.53
2017-12-27T08:42:56.077Z,87.15
2017-12-27T08:43:36.790Z,87.34
2017-12-27T08:44:19.723Z,87.91
2017-12-27T08:44:59.678Z,87.72
2017-12-27T08:45:40.478Z,87.53
2017-12-27T08:46:21.676Z,87.82
2017-12-27T08:47:04.145Z,88.01
2017-12-27T08:47:44.908Z,87.82
2017-12-27T08:48:25.470Z,87.53
2017-12-27T08:49:05.783Z,87.72
2017-12-27T08:49:46.842Z,87.82
2017-12-27T08:50:27.591Z,87.53
2017-12-27T08:51:08.655Z,87.72
2017-12-27T08:51:49.116Z,87.82
2017-12-27T08:53:37.228Z,87.53
2017-12-27T08:54:17.718Z,87.53
2017-12-27T08:54:58.201Z,87.43
2017-12-27T08:55:43.999Z,87.05
2017-12-27T08:57:06.470Z,87.82
2017-12-27T08:57:46.842Z,87.53
2017-12-27T08:58:27.477Z,87.62
2017-12-27T08:59:10.190Z,87.62
2017-12-27T08:59:50.534Z,87.82
2017-12-27T09:00:30.949Z,87.24
2017-12-27T09:01:11.739Z,87.62
2017-12-27T09:01:54.111Z,87.24
2017-12-27T09:02:35.064Z,86.77
2017-12-27T09:03:16.833Z,87.05
2017-12-27T09:03:57.713Z,87.62
2017-12-27T09:10:45.890Z,87.91
2017-12-27T09:11:29.223Z,88.1
2017-12-27T09:12:09.228Z,88.1
2017-12-27T09:12:50.537Z,87.82
2017-12-27T09:13:31.888Z,87.43
2017-12-27T09:14:12.348Z,87.91
2017-12-27T09:14:52.752Z,87.91
2017-12-27T09:15:33.422Z,88.2
2017-12-27T09:16:13.799Z,88.2
2017-12-27T09:16:54.386Z,88.57
2017-12-27T09:17:34.594Z,88.39
2017-12-27T09:18:15.117Z,88.57
2017-12-27T09:18:55.732Z,88.29
2017-12-27T09:19:36.593Z,88.48
2017-12-27T09:20:17.380Z,87.82
2017-12-27T09:20:57.940Z,88.2
2017-12-27T09:21:38.730Z,88.67
2017-12-27T09:22:19.539Z,88.57
2017-12-27T09:23:00.422Z,88.48
2017-12-27T09:23:40.752Z,88.67
2017-12-27T09:24:23.695Z,88.67
2017-12-27T09:25:04.127Z,88.39
2017-12-27T09:25:44.887Z,88.57
2017-12-27T09:26:25.188Z,88.39
2017-12-27T09:27:06.042Z,88.57
2017-12-27T09:27:46.482Z,88.57
2017-12-27T09:28:27.334Z,88.2
2017-12-27T09:29:09.656Z,88.57
2017-12-27T09:29:50.209Z,88.48
2017-12-27T09:30:30.950Z,88.67
2017-12-27T09:31:11.316Z,88.76
2017-12-27T09:33:36.585Z,88.76
2017-12-27T09:34:31.376Z,88.95
2017-12-27T09:35:11.802Z,88.57
2017-12-27T09:35:52.722Z,88.67
2017-12-27T09:36:33.670Z,88.76
2017-12-27T09:37:15.686Z,89.05
2017-12-27T09:37:56.070Z,89.05
2017-12-27T09:38:36.469Z,88.95
2017-12-27T09:39:17.180Z,89.14
2017-12-27T09:39:58.511Z,89.24
2017-12-27T09:40:38.939Z,89.14
2017-12-27T09:41:19.264Z,88.95
2017-12-27T09:42:01.431Z,88.76
2017-12-27T09:42:41.395Z,89.05
2017-12-27T09:43:27.953Z,88.95
2017-12-27T09:44:11.157Z,88.76
2017-12-27T09:44:51.554Z,88.67
2017-12-27T09:45:32.595Z,88.67
2017-12-27T09:46:13.196Z,88.48
2017-12-27T09:46:53.884Z,88.57
2017-12-27T09:47:36.331Z,88.57
2017-12-27T09:48:15.927Z,88.67
2017-12-27T09:48:56.522Z,88.57
2017-12-27T09:49:37.377Z,88.48
2017-12-27T09:50:19.569Z,88.67
2017-12-27T09:51:02.986Z,88.57
2017-12-27T09:51:48.946Z,88.57
2017-12-27T09:52:29.530Z,88.62
2017-12-27T09:53:09.882Z,88.05
2017-12-27T09:53:52.057Z,87.95
2017-12-27T09:54:32.660Z,87.91
2017-12-27T09:55:13.130Z,88.15
2017-12-27T09:55:54.032Z,88.05
2017-12-27T09:56:34.834Z,88.05
2017-12-27T09:57:16.016Z,88.24
2017-12-27T09:57:56.180Z,88.05
2017-12-27T09:58:36.593Z,88.15
2017-12-27T09:59:17.073Z,87.95
2017-12-27T09:59:57.451Z,87.86
2017-12-27T10:00:38.119Z,87.76
2017-12-27T10:01:18.540Z,87.76
2017-12-27T10:02:00.800Z,87.95
2017-12-27T10:02:42.156Z,87.76
2017-12-27T10:45:33.806Z,88.28
2017-12-27T10:46:16.869Z,88.47
2017-12-27T10:46:57.407Z,88.19
2017-12-27T10:47:37.719Z,87.86
2017-12-27T10:48:18.616Z,88
2017-12-27T10:49:04.077Z,87.81
2017-12-27T10:49:45.898Z,87.95
2017-12-27T10:50:26.789Z,87.67
2017-12-27T10:51:07.808Z,87.57
2017-12-27T10:51:48.300Z,87.9
2017-12-27T10:52:29.639Z,87.9
2017-12-27T10:53:10.066Z,87.62
2017-12-27T10:53:50.502Z,87.24
2017-12-27T10:54:30.912Z,87.81
2017-12-27T10:56:52.071Z,87.24
2017-12-27T10:57:41.641Z,86.86
2017-12-27T10:58:26.862Z,86.95
2017-12-27T10:59:07.089Z,86.86
2017-12-27T10:59:48.093Z,86.76
2017-12-27T11:00:28.469Z,87.05
2017-12-27T11:01:08.913Z,87.34
2017-12-27T11:01:49.531Z,86.95
2017-12-27T11:02:30.213Z,86.95
2017-12-27T11:03:10.894Z,87.14